Piracaia, Brazil
Current Conditions -  °F | °C
As of 10:00 PM on Sunday 21 Dec 2014 (Local Time) from SBGR Reporting Station
Broken Clouds Broken Clouds  
Wind Chill: 75°   Ceiling: 8000
Heat Index: 75°   Visibility: 6mi
Dew Point: 70°   Wind: 9mph
Humidity: 83%   Direction: 340°NNW
Pressure: 29.94"   Gusts: NA
Location:  23.05°S, 46.36°W
Report Text: SBGR 220000Z 34008KT 9999 SCT020 BKN080 24/21 Q1014
Loading
Personal Weather Stations






























Interactive Weather Map New forecast layout! Learn more

10-Day Weather Forecast

Advertisements
Track Severe Weather on mobile